Terminal Aerodrome Forecast
Issued by NWS

Home | Current Version | Previous Version | Text Only | Print | Product List | Glossary On
Versions: 1 2 3 4 5 6 7 8 9 10 11 12 13
000
FTUS45 KRIW 160500
TAFBPI
TAF
KBPI 160523Z 1606/1706 35006KT P6SM FEW120
     FM161100 VRB05KT P6SM FEW120
     FM162100 29010KT P6SM VCSH SCT100 BKN130
     FM170200 34008KT P6SM SCT120=

USA.gov is the U.S. government's official web portal to all federal, state and local government web resources and services.